createdAt,value
2022-11-22T00:00:31.023Z,61.09
2022-11-22T00:01:31.009Z,61.09
2022-11-22T00:02:31.107Z,61.09
2022-11-22T00:03:30.983Z,61.09
2022-11-22T00:04:30.969Z,61.09
2022-11-22T00:05:30.959Z,61.09
2022-11-22T00:06:30.946Z,61.09
2022-11-22T00:07:30.959Z,61.09
2022-11-22T00:08:30.945Z,60.99
2022-11-22T00:09:31.128Z,60.99
2022-11-22T00:10:30.890Z,60.99
2022-11-22T00:11:30.881Z,61.09
2022-11-22T00:12:30.864Z,61.09
2022-11-22T00:13:30.852Z,61.09
2022-11-22T00:14:30.839Z,61.09
2022-11-22T00:15:30.826Z,61.09
2022-11-22T00:16:30.813Z,61.09
2022-11-22T00:17:30.802Z,60.99
2022-11-22T00:18:30.788Z,61.09
2022-11-22T00:19:31.061Z,61.09
2022-11-22T00:20:30.760Z,60.99
2022-11-22T00:21:30.748Z,61.09
2022-11-22T00:22:30.734Z,61.09
2022-11-22T00:23:30.727Z,61.09
2022-11-22T00:24:30.773Z,61.09
2022-11-22T00:25:30.696Z,61.09
2022-11-22T00:26:30.689Z,61.09
2022-11-22T00:27:30.671Z,61.09
2022-11-22T00:28:30.656Z,61.09
2022-11-22T00:29:30.874Z,61.09
2022-11-22T00:30:30.630Z,61.09
2022-11-22T00:31:30.625Z,61.09
2022-11-22T00:32:30.605Z,60.99
2022-11-22T00:33:30.593Z,61.09
2022-11-22T00:34:30.581Z,61.09
2022-11-22T00:35:30.568Z,61.09
2022-11-22T00:36:30.564Z,61.09
2022-11-22T00:37:30.540Z,61.09
2022-11-22T00:38:30.527Z,61.09
2022-11-22T00:39:30.916Z,61.09
2022-11-22T00:40:30.530Z,61.09
2022-11-22T00:41:30.489Z,61.09
2022-11-22T00:42:30.475Z,61.09
2022-11-22T00:43:30.465Z,61.09
2022-11-22T00:44:30.450Z,61.09
2022-11-22T00:45:30.438Z,61.09
2022-11-22T00:46:30.427Z,61.09
2022-11-22T00:47:30.415Z,61.09
2022-11-22T00:48:30.399Z,61.09
2022-11-22T00:49:30.715Z,61.09
2022-11-22T00:50:30.380Z,61.09
2022-11-22T00:51:30.362Z,61.09
2022-11-22T00:52:30.348Z,61.09
2022-11-22T00:53:30.335Z,61.09
2022-11-22T00:54:30.321Z,61.09
2022-11-22T00:55:30.309Z,61.09
2022-11-22T00:56:30.319Z,61.09
2022-11-22T00:57:30.285Z,61.09
2022-11-22T00:58:30.270Z,61.09
2022-11-22T00:59:30.642Z,61.09
2022-11-22T01:00:30.245Z,61.09
2022-11-22T01:01:30.372Z,61.09
2022-11-22T01:02:30.217Z,61.09
2022-11-22T01:03:30.205Z,60.99
2022-11-22T01:04:30.195Z,60.99
2022-11-22T01:05:30.180Z,61.09
2022-11-22T01:06:30.163Z,61.09
2022-11-22T01:07:30.309Z,61.09
2022-11-22T01:08:30.139Z,61.09
2022-11-22T01:09:30.306Z,61.09
2022-11-22T01:10:30.113Z,61.09
2022-11-22T01:11:30.101Z,61.19
2022-11-22T01:12:30.115Z,61.09
2022-11-22T01:13:30.083Z,61.09
2022-11-22T01:14:30.062Z,61.09
2022-11-22T01:15:30.049Z,61.09
2022-11-22T01:16:30.037Z,61.09
2022-11-22T01:17:30.024Z,61.09
2022-11-22T01:18:30.008Z,61.09
2022-11-22T01:19:30.401Z,61.09
2022-11-22T01:20:29.985Z,61.09
2022-11-22T01:21:29.969Z,61.19
2022-11-22T01:22:29.959Z,61.19
2022-11-22T01:23:29.944Z,61.09
2022-11-22T01:24:29.935Z,61.09
2022-11-22T01:25:29.918Z,61.09
2022-11-22T01:26:29.907Z,61.09
2022-11-22T01:27:29.893Z,61.09
2022-11-22T01:28:29.915Z,61.09
2022-11-22T01:29:30.363Z,61.09
2022-11-22T01:30:29.857Z,61.09
2022-11-22T01:31:29.844Z,61.09
2022-11-22T01:32:29.830Z,61.09
2022-11-22T01:33:29.815Z,61.09
2022-11-22T01:34:29.806Z,61.09
2022-11-22T01:35:29.790Z,61.09
2022-11-22T01:36:29.777Z,61.09
2022-11-22T01:37:29.761Z,61.09
2022-11-22T01:38:29.751Z,61.19
2022-11-22T01:39:30.137Z,61.19
2022-11-22T01:40:29.725Z,61.19
2022-11-22T01:41:29.713Z,61.19
2022-11-22T01:42:29.700Z,61.19
2022-11-22T01:43:29.686Z,61.19
2022-11-22T01:44:29.702Z,61.09
2022-11-22T01:45:29.662Z,61.09
2022-11-22T01:46:29.650Z,61.09
2022-11-22T01:47:29.635Z,61.09
2022-11-22T01:48:29.624Z,61.09
2022-11-22T01:49:29.921Z,61.09
2022-11-22T01:50:29.605Z,61.09
2022-11-22T01:51:29.583Z,61.09
2022-11-22T01:52:29.571Z,61.09
2022-11-22T01:53:29.558Z,61.19
2022-11-22T01:54:29.547Z,61.09
2022-11-22T01:55:29.533Z,61.09
2022-11-22T01:56:29.528Z,61.09
2022-11-22T01:57:29.509Z,61.09
2022-11-22T01:58:29.494Z,61.09
2022-11-22T01:59:29.814Z,61.09
2022-11-22T02:00:29.493Z,61.19
2022-11-22T02:01:29.524Z,61.19
2022-11-22T02:02:29.443Z,61.19
2022-11-22T02:03:29.429Z,61.19
2022-11-22T02:04:29.421Z,61.19
2022-11-22T02:05:29.403Z,61.19
2022-11-22T02:06:29.391Z,61.19
2022-11-22T02:07:29.465Z,61.19
2022-11-22T02:08:29.365Z,61.19
2022-11-22T02:09:29.684Z,61.19
2022-11-22T02:10:35.344Z,61.19
2022-11-22T02:11:33.808Z,61.19
2022-11-22T02:12:29.312Z,61.19
2022-11-22T02:13:29.297Z,61.09
2022-11-22T02:14:29.286Z,61.19
2022-11-22T02:15:29.272Z,61.19
2022-11-22T02:16:29.290Z,61.09
2022-11-22T02:17:29.245Z,61.19
2022-11-22T02:18:29.236Z,61.19
2022-11-22T02:19:29.615Z,61.19
2022-11-22T02:20:29.207Z,61.19
2022-11-22T02:21:29.193Z,61.19
2022-11-22T02:22:29.182Z,61.19
2022-11-22T02:23:29.172Z,61.19
2022-11-22T02:24:29.155Z,61.19
2022-11-22T02:26:44.049Z,61.19
2022-11-22T02:27:38.035Z,61.19
2022-11-22T02:28:38.017Z,61.19
2022-11-22T02:29:38.004Z,61.19
2022-11-22T02:30:37.991Z,61.19
2022-11-22T02:31:38.007Z,61.19
2022-11-22T02:32:37.964Z,61.09
2022-11-22T02:33:37.953Z,61.19
2022-11-22T02:34:37.942Z,61.09
2022-11-22T02:35:37.927Z,61.09
2022-11-22T02:36:37.917Z,61.09
2022-11-22T02:37:37.904Z,61.09
2022-11-22T02:38:37.890Z,61.09
2022-11-22T02:39:37.878Z,61.09
2022-11-22T02:40:37.864Z,61.19
2022-11-22T02:41:37.853Z,61.19
2022-11-22T02:42:37.843Z,61.19
2022-11-22T02:43:37.827Z,61.19
2022-11-22T02:44:37.813Z,61.19
2022-11-22T02:45:37.806Z,61.19
2022-11-22T02:46:37.786Z,61.19
2022-11-22T02:47:37.807Z,61.19
2022-11-22T02:48:37.763Z,61.19
2022-11-22T02:49:37.747Z,61.19
2022-11-22T02:50:37.733Z,61.19
2022-11-22T02:51:37.723Z,61.19
2022-11-22T02:52:37.709Z,61.19
2022-11-22T02:53:37.696Z,61.19
2022-11-22T02:54:37.683Z,61.19
2022-11-22T02:55:37.670Z,61.19
2022-11-22T02:56:37.658Z,61.19
2022-11-22T02:57:37.645Z,61.30
2022-11-22T02:58:37.633Z,61.30
2022-11-22T02:59:37.619Z,61.19
2022-11-22T03:00:37.648Z,61.19
2022-11-22T03:01:37.677Z,61.19
2022-11-22T03:02:37.578Z,61.30
2022-11-22T03:03:37.591Z,61.30
2022-11-22T03:04:37.550Z,61.30
2022-11-22T03:05:37.542Z,61.30
2022-11-22T03:06:37.525Z,61.19
2022-11-22T03:07:37.584Z,61.30
2022-11-22T03:08:37.499Z,61.30
2022-11-22T03:09:37.487Z,61.30
2022-11-22T03:10:37.473Z,61.30
2022-11-22T03:11:37.462Z,61.19
2022-11-22T03:12:37.446Z,61.19
2022-11-22T03:13:37.436Z,61.30
2022-11-22T03:14:37.423Z,61.19
2022-11-22T03:15:37.409Z,61.19
2022-11-22T03:16:37.393Z,61.19
2022-11-22T03:17:37.382Z,61.30
2022-11-22T03:18:37.367Z,61.30
2022-11-22T03:19:37.381Z,61.30
2022-11-22T03:20:37.341Z,61.30
2022-11-22T03:21:37.332Z,61.30
2022-11-22T03:22:37.315Z,61.30
2022-11-22T03:23:37.304Z,61.30
2022-11-22T03:24:37.287Z,61.30
2022-11-22T03:25:37.277Z,61.30
2022-11-22T03:26:37.264Z,61.30
2022-11-22T03:27:37.250Z,61.30
2022-11-22T03:28:37.239Z,61.30
2022-11-22T03:29:37.225Z,61.30
2022-11-22T03:30:37.210Z,61.30
2022-11-22T03:31:37.201Z,61.19
2022-11-22T03:32:37.185Z,61.30
2022-11-22T03:33:37.171Z,61.30
2022-11-22T03:34:37.158Z,61.30
2022-11-22T03:35:37.171Z,61.30
2022-11-22T03:36:37.137Z,61.30
2022-11-22T03:37:37.119Z,61.30
2022-11-22T03:38:37.105Z,61.30
2022-11-22T03:39:37.094Z,61.30
2022-11-22T03:40:37.080Z,61.30
2022-11-22T03:41:37.069Z,61.30
2022-11-22T03:42:37.052Z,61.30
2022-11-22T03:43:37.048Z,61.30
2022-11-22T03:44:37.029Z,61.30
2022-11-22T03:45:37.016Z,61.30
2022-11-22T03:46:43.010Z,61.40
2022-11-22T03:47:36.992Z,61.40
2022-11-22T03:48:36.977Z,61.40
2022-11-22T03:49:36.964Z,61.40
2022-11-22T03:50:36.952Z,61.30
2022-11-22T03:51:36.967Z,61.40
2022-11-22T03:52:36.926Z,61.40
2022-11-22T03:53:36.913Z,61.40
2022-11-22T03:54:36.900Z,61.40
2022-11-22T03:55:36.888Z,61.40
2022-11-22T03:56:36.879Z,61.30
2022-11-22T03:57:36.866Z,61.40
2022-11-22T03:58:36.848Z,61.40
2022-11-22T03:59:36.842Z,61.40
2022-11-22T04:00:36.822Z,61.40
2022-11-22T04:01:36.911Z,61.40
2022-11-22T04:02:36.798Z,61.40
2022-11-22T04:03:36.785Z,61.40
2022-11-22T04:04:36.776Z,61.40
2022-11-22T04:05:36.758Z,61.40
2022-11-22T04:06:36.753Z,61.40
2022-11-22T04:07:36.788Z,61.40
2022-11-22T04:08:36.743Z,61.40
2022-11-22T04:09:36.845Z,61.40
2022-11-22T04:10:36.696Z,61.40
2022-11-22T04:11:36.680Z,61.40
2022-11-22T04:12:36.666Z,61.40
2022-11-22T04:13:36.653Z,61.40
2022-11-22T04:14:36.641Z,61.40
2022-11-22T04:15:36.628Z,61.40
2022-11-22T04:16:36.614Z,61.40
2022-11-22T04:17:36.603Z,61.40
2022-11-22T04:18:36.587Z,61.40
2022-11-22T04:19:36.575Z,61.40
2022-11-22T04:20:36.561Z,61.40
2022-11-22T04:21:36.606Z,61.40
2022-11-22T04:22:36.536Z,61.30
2022-11-22T04:23:36.547Z,61.40
2022-11-22T04:24:36.508Z,61.40
2022-11-22T04:25:36.497Z,61.40
2022-11-22T04:26:36.482Z,61.40
2022-11-22T04:27:36.470Z,61.40
2022-11-22T04:29:01.833Z,61.40
2022-11-22T04:29:37.481Z,61.40
2022-11-22T04:30:36.434Z,61.40
2022-11-22T04:31:36.420Z,61.40
2022-11-22T04:32:36.413Z,61.40
2022-11-22T04:33:36.394Z,61.40
2022-11-22T04:34:36.383Z,61.40
2022-11-22T04:35:36.369Z,61.40
2022-11-22T04:36:36.354Z,61.40
2022-11-22T04:37:36.343Z,61.40
2022-11-22T04:38:36.330Z,61.40
2022-11-22T04:39:36.339Z,61.40
2022-11-22T04:40:36.303Z,61.40
2022-11-22T04:41:36.293Z,61.40
2022-11-22T04:42:36.277Z,61.40
2022-11-22T04:43:36.267Z,61.40
2022-11-22T04:44:36.254Z,61.40
2022-11-22T04:45:36.241Z,61.40
2022-11-22T04:46:36.225Z,61.40
2022-11-22T04:47:36.215Z,61.40
2022-11-22T04:48:36.200Z,61.40
2022-11-22T04:49:36.189Z,61.51
2022-11-22T04:50:36.176Z,61.51
2022-11-22T04:51:36.164Z,61.51
2022-11-22T04:52:36.150Z,61.40
2022-11-22T04:53:36.138Z,61.40
2022-11-22T04:54:36.123Z,61.40
2022-11-22T04:55:36.140Z,61.40
2022-11-22T04:56:36.099Z,61.40
2022-11-22T04:57:36.086Z,61.51
2022-11-22T04:58:36.073Z,61.51
2022-11-22T04:59:36.060Z,61.40
2022-11-22T05:00:36.116Z,61.40
2022-11-22T05:01:36.208Z,61.51
2022-11-22T05:02:36.020Z,61.51
2022-11-22T05:03:36.011Z,61.51
2022-11-22T05:04:35.995Z,61.51
2022-11-22T05:05:35.983Z,61.51
2022-11-22T05:06:35.966Z,61.51
2022-11-22T05:07:36.028Z,61.51
2022-11-22T05:08:35.942Z,61.51
2022-11-22T05:09:35.930Z,61.51
2022-11-22T05:10:35.916Z,61.51
2022-11-22T05:11:35.928Z,61.51
2022-11-22T05:12:35.891Z,61.51
2022-11-22T05:13:35.882Z,61.51
2022-11-22T05:14:35.866Z,61.51
2022-11-22T05:15:35.854Z,61.51
2022-11-22T05:16:35.841Z,61.51
2022-11-22T05:17:35.830Z,61.51
2022-11-22T05:18:35.814Z,61.51
2022-11-22T05:19:35.808Z,61.51
2022-11-22T05:20:35.790Z,61.51
2022-11-22T05:21:35.798Z,61.51
2022-11-22T05:22:35.764Z,61.51
2022-11-22T05:23:35.752Z,61.51
2022-11-22T05:24:35.737Z,61.51
2022-11-22T05:25:35.726Z,61.51
2022-11-22T05:26:35.721Z,61.51
2022-11-22T05:27:35.724Z,61.51
2022-11-22T05:28:35.687Z,61.51
2022-11-22T05:29:35.674Z,61.51
2022-11-22T05:30:35.661Z,61.51
2022-11-22T05:31:35.652Z,61.60
2022-11-22T05:32:35.636Z,61.60
2022-11-22T05:33:35.623Z,61.60
2022-11-22T05:34:35.610Z,61.51
2022-11-22T05:35:35.598Z,61.51
2022-11-22T05:36:35.591Z,61.51
2022-11-22T05:37:35.573Z,61.51
2022-11-22T05:38:35.558Z,61.51
2022-11-22T05:39:35.543Z,61.51
2022-11-22T05:40:35.529Z,61.51
2022-11-22T05:41:35.521Z,61.60
2022-11-22T05:42:35.504Z,61.60
2022-11-22T05:43:35.533Z,61.60
2022-11-22T05:44:35.479Z,61.60
2022-11-22T05:45:35.470Z,61.60
2022-11-22T05:46:35.457Z,61.60
2022-11-22T05:47:35.445Z,61.60
2022-11-22T05:48:35.433Z,61.60
2022-11-22T05:49:35.421Z,61.60
2022-11-22T05:50:35.407Z,61.60
2022-11-22T05:51:35.393Z,61.60
2022-11-22T05:52:35.380Z,61.60
2022-11-22T05:53:35.369Z,61.51
2022-11-22T05:54:35.353Z,61.60
2022-11-22T05:55:35.344Z,61.60
2022-11-22T05:56:35.330Z,61.60
2022-11-22T05:57:35.317Z,61.60
2022-11-22T05:58:35.303Z,61.51
2022-11-22T05:59:37.695Z,61.51
2022-11-22T06:00:35.277Z,61.51
2022-11-22T06:01:35.266Z,61.60
2022-11-22T06:02:35.311Z,61.60
2022-11-22T06:03:35.243Z,61.60
2022-11-22T06:04:35.228Z,61.60
2022-11-22T06:05:35.216Z,61.60
2022-11-22T06:06:35.201Z,61.60
2022-11-22T06:07:35.317Z,61.60
2022-11-22T06:08:35.175Z,61.51
2022-11-22T06:09:35.165Z,61.51
2022-11-22T06:10:35.155Z,61.51
2022-11-22T06:11:35.151Z,61.51
2022-11-22T06:12:35.130Z,61.60
2022-11-22T06:13:35.121Z,61.60
2022-11-22T06:14:39.924Z,61.60
2022-11-22T06:15:36.181Z,61.60
2022-11-22T06:16:35.078Z,61.51
2022-11-22T06:17:35.067Z,61.51
2022-11-22T06:18:35.052Z,61.60
2022-11-22T06:19:35.042Z,61.60
2022-11-22T06:20:35.029Z,61.60
2022-11-22T06:21:35.023Z,61.60
2022-11-22T06:22:35.005Z,61.60
2022-11-22T06:23:34.998Z,61.60
2022-11-22T06:24:34.976Z,61.60
2022-11-22T06:25:34.969Z,61.60
2022-11-22T06:26:39.265Z,61.60
2022-11-22T06:27:34.938Z,61.60
2022-11-22T06:28:34.926Z,61.60
2022-11-22T06:29:34.914Z,61.60
2022-11-22T06:30:34.900Z,61.60
2022-11-22T06:31:34.915Z,61.60
2022-11-22T06:32:34.877Z,61.60
2022-11-22T06:33:34.861Z,61.60
2022-11-22T06:34:34.853Z,61.60
2022-11-22T06:35:34.836Z,61.60
2022-11-22T06:36:34.826Z,61.60
2022-11-22T06:37:34.810Z,61.60
2022-11-22T06:38:34.800Z,61.60
2022-11-22T06:39:34.784Z,61.60
2022-11-22T06:40:34.774Z,61.60
2022-11-22T06:41:34.765Z,61.60
2022-11-22T06:42:34.748Z,61.71
2022-11-22T06:43:34.734Z,61.60
2022-11-22T06:44:34.721Z,61.71
2022-11-22T06:45:34.710Z,61.60
2022-11-22T06:46:34.702Z,61.60
2022-11-22T06:47:34.711Z,61.60
2022-11-22T06:48:34.670Z,61.60
2022-11-22T06:49:34.683Z,61.60
2022-11-22T06:50:34.645Z,61.60
2022-11-22T06:51:34.631Z,61.60
2022-11-22T06:52:34.620Z,61.71
2022-11-22T06:54:35.631Z,61.71
2022-11-22T06:55:50.303Z,61.71
2022-11-22T06:56:34.572Z,61.71
2022-11-22T06:57:34.552Z,61.71
2022-11-22T06:58:34.541Z,61.71
2022-11-22T07:00:05.532Z,61.71
2022-11-22T07:01:05.557Z,61.60
2022-11-22T07:02:06.837Z,61.60
2022-11-22T07:03:05.513Z,61.60
2022-11-22T07:04:05.480Z,61.71
2022-11-22T07:05:26.879Z,61.71
2022-11-22T07:06:06.493Z,61.71
2022-11-22T07:07:05.484Z,61.60
2022-11-22T07:08:12.046Z,61.60
2022-11-22T07:09:06.456Z,61.60
2022-11-22T07:10:05.400Z,61.60
2022-11-22T07:11:05.386Z,61.60
2022-11-22T07:12:05.376Z,61.60
2022-11-22T07:13:05.361Z,61.60
2022-11-22T07:14:08.664Z,61.60
2022-11-22T07:15:05.337Z,61.51
2022-11-22T07:16:05.324Z,61.51
2022-11-22T07:17:05.311Z,61.51
2022-11-22T07:18:05.299Z,61.51
2022-11-22T07:19:05.323Z,61.51
2022-11-22T07:20:05.336Z,61.51
2022-11-22T07:21:10.970Z,61.51
2022-11-22T07:22:06.293Z,61.51
2022-11-22T07:23:05.234Z,61.51
2022-11-22T07:24:05.223Z,61.51
2022-11-22T07:25:05.210Z,61.51
2022-11-22T07:26:05.198Z,61.51
2022-11-22T07:27:05.184Z,61.51
2022-11-22T07:28:05.170Z,61.51
2022-11-22T07:29:05.156Z,61.51
2022-11-22T07:30:05.145Z,61.51
2022-11-22T07:31:05.132Z,61.51
2022-11-22T07:32:05.120Z,61.51
2022-11-22T07:33:05.107Z,61.51
2022-11-22T07:34:05.092Z,61.51
2022-11-22T07:35:05.108Z,61.51
2022-11-22T07:36:05.069Z,61.51
2022-11-22T07:37:09.083Z,61.51
2022-11-22T07:38:05.043Z,61.51
2022-11-22T07:39:05.031Z,61.51
2022-11-22T07:40:05.019Z,61.51
2022-11-22T07:41:05.014Z,61.51
2022-11-22T07:42:04.989Z,61.51
2022-11-22T07:43:04.980Z,61.51
2022-11-22T07:44:04.964Z,61.51
2022-11-22T07:45:04.956Z,61.60
2022-11-22T07:46:04.943Z,61.60
2022-11-22T07:47:04.928Z,61.51
2022-11-22T07:48:04.913Z,61.60
2022-11-22T07:49:04.902Z,61.60
2022-11-22T07:50:04.888Z,61.51
2022-11-22T07:51:04.899Z,61.51
2022-11-22T07:52:04.862Z,61.51
2022-11-22T07:53:04.850Z,61.51
2022-11-22T07:54:04.840Z,61.51
2022-11-22T07:55:07.573Z,61.51
2022-11-22T07:56:05.854Z,61.40
2022-11-22T07:57:04.798Z,61.40
2022-11-22T07:58:04.784Z,61.51
2022-11-22T07:59:04.775Z,61.51
2022-11-22T08:00:04.758Z,61.51
2022-11-22T08:01:04.833Z,61.60
2022-11-22T08:02:04.780Z,61.60
2022-11-22T08:03:04.722Z,61.60
2022-11-22T08:04:04.707Z,61.60
2022-11-22T08:05:04.698Z,61.60
2022-11-22T08:06:04.691Z,61.60
2022-11-22T08:07:04.746Z,61.60
2022-11-22T08:08:04.657Z,61.60
2022-11-22T08:09:04.644Z,61.60
2022-11-22T08:10:04.636Z,61.51
2022-11-22T08:11:04.618Z,61.51
2022-11-22T08:12:04.601Z,61.51
2022-11-22T08:13:04.594Z,61.51
2022-11-22T08:14:04.576Z,61.51
2022-11-22T08:15:04.566Z,61.51
2022-11-22T08:16:05.957Z,61.40
2022-11-22T08:17:04.538Z,61.51
2022-11-22T08:18:04.524Z,61.51
2022-11-22T08:19:04.514Z,61.51
2022-11-22T08:20:04.499Z,61.51
2022-11-22T08:21:04.491Z,61.51
2022-11-22T08:22:04.473Z,61.51
2022-11-22T08:23:04.586Z,61.51
2022-11-22T08:24:04.447Z,61.51
2022-11-22T08:25:04.438Z,61.51
2022-11-22T08:26:04.421Z,61.51
2022-11-22T08:27:04.410Z,61.51
2022-11-22T08:28:04.394Z,61.51
2022-11-22T08:29:04.387Z,61.51
2022-11-22T08:30:04.370Z,61.51
2022-11-22T08:31:04.361Z,61.51
2022-11-22T08:32:04.344Z,61.51
2022-11-22T08:33:04.335Z,61.51
2022-11-22T08:34:04.318Z,61.51
2022-11-22T08:35:04.319Z,61.51
2022-11-22T08:36:04.307Z,61.51
2022-11-22T08:37:04.282Z,61.40
2022-11-22T08:38:04.267Z,61.40
2022-11-22T08:39:04.373Z,61.37
2022-11-22T08:40:04.239Z,61.40
2022-11-22T08:41:04.302Z,61.51
2022-11-22T08:42:04.215Z,61.51
2022-11-22T08:43:04.205Z,61.40
2022-11-22T08:44:04.190Z,61.51
2022-11-22T08:45:04.182Z,61.40
2022-11-22T08:46:04.165Z,61.51
2022-11-22T08:47:04.154Z,61.51
2022-11-22T08:48:04.140Z,61.51
2022-11-22T08:49:04.125Z,61.51
2022-11-22T08:50:04.113Z,61.51
2022-11-22T08:51:04.103Z,61.51
2022-11-22T08:52:04.086Z,61.51
2022-11-22T08:53:04.075Z,61.51
2022-11-22T08:54:04.060Z,61.51
2022-11-22T08:55:04.167Z,61.51
2022-11-22T08:56:04.034Z,61.51
2022-11-22T08:57:04.026Z,61.51
2022-11-22T08:58:04.010Z,61.51
2022-11-22T08:59:04.020Z,61.51
2022-11-22T09:00:03.986Z,61.48
2022-11-22T09:01:04.046Z,61.48
2022-11-22T09:02:04.009Z,61.48
2022-11-22T09:03:03.948Z,61.37
2022-11-22T09:04:03.931Z,61.37
2022-11-22T09:05:03.921Z,61.37
2022-11-22T09:10:04.895Z,61.37
2022-11-22T09:11:03.984Z,61.37
2022-11-22T09:12:03.827Z,61.37
2022-11-22T09:13:03.817Z,61.37
2022-11-22T09:14:03.803Z,61.37
2022-11-22T09:15:03.791Z,61.37
2022-11-22T09:16:03.775Z,61.37
2022-11-22T09:17:03.766Z,61.37
2022-11-22T09:18:03.751Z,61.37
2022-11-22T09:19:03.747Z,61.37
2022-11-22T09:20:03.741Z,61.37
2022-11-22T09:21:03.722Z,61.37
2022-11-22T09:22:03.702Z,61.37
2022-11-22T09:23:03.687Z,61.37
2022-11-22T09:24:03.673Z,61.37
2022-11-22T09:25:03.662Z,61.37
2022-11-22T09:26:03.648Z,61.37
2022-11-22T09:27:03.813Z,61.37
2022-11-22T09:28:03.622Z,61.37
2022-11-22T09:29:03.613Z,61.37
2022-11-22T09:30:03.598Z,61.37
2022-11-22T09:31:03.585Z,61.37
2022-11-22T09:32:03.571Z,61.37
2022-11-22T09:33:03.562Z,61.37
2022-11-22T09:34:03.548Z,61.37
2022-11-22T09:35:03.535Z,61.37
2022-11-22T09:36:03.522Z,61.37
2022-11-22T09:37:03.508Z,61.37
2022-11-22T09:38:03.494Z,61.37
2022-11-22T09:39:03.499Z,61.37
2022-11-22T09:40:03.470Z,61.37
2022-11-22T09:41:03.456Z,61.48
2022-11-22T09:42:03.444Z,61.37
2022-11-22T09:43:03.558Z,61.37
2022-11-22T09:44:03.418Z,61.37
2022-11-22T09:45:03.406Z,61.37
2022-11-22T09:46:03.392Z,61.37
2022-11-22T09:47:03.380Z,61.48
2022-11-22T09:48:09.467Z,61.48
2022-11-22T09:49:04.392Z,61.48
2022-11-22T09:50:03.390Z,61.48
2022-11-22T09:51:03.327Z,61.48
2022-11-22T09:52:03.313Z,61.48
2022-11-22T09:53:03.306Z,61.48
2022-11-22T09:54:03.288Z,61.37
2022-11-22T09:55:03.276Z,61.48
2022-11-22T09:56:03.263Z,61.48
2022-11-22T09:57:03.249Z,61.48
2022-11-22T09:58:03.235Z,61.37
2022-11-22T09:59:03.345Z,61.37
2022-11-22T10:00:03.230Z,61.37
2022-11-22T10:01:03.241Z,61.37
2022-11-22T10:02:16.987Z,61.37
2022-11-22T10:03:05.171Z,61.48
2022-11-22T10:04:03.158Z,61.48
2022-11-22T10:05:03.144Z,61.48
2022-11-22T10:06:03.134Z,61.48
2022-11-22T10:07:03.164Z,61.48
2022-11-22T10:08:03.114Z,61.48
2022-11-22T10:09:03.096Z,61.48
2022-11-22T10:10:38.034Z,61.48
2022-11-22T10:11:38.018Z,61.48
2022-11-22T10:12:38.007Z,61.48
2022-11-22T10:13:37.992Z,61.48
2022-11-22T10:14:38.106Z,61.48
2022-11-22T10:15:37.965Z,61.48
2022-11-22T10:16:37.956Z,61.58
2022-11-22T10:17:37.939Z,61.58
2022-11-22T10:18:37.929Z,61.48
2022-11-22T10:19:43.919Z,61.58
2022-11-22T10:20:37.901Z,61.48
2022-11-22T10:21:37.889Z,61.48
2022-11-22T10:22:37.877Z,61.48
2022-11-22T10:23:37.862Z,61.58
2022-11-22T10:24:37.851Z,61.58
2022-11-22T10:25:37.837Z,61.58
2022-11-22T10:26:37.824Z,61.58
2022-11-22T10:27:37.809Z,61.58
2022-11-22T10:28:37.800Z,61.58
2022-11-22T10:29:37.783Z,61.58
2022-11-22T10:30:37.888Z,61.58
2022-11-22T10:31:37.756Z,61.58
2022-11-22T10:32:37.749Z,61.58
2022-11-22T10:33:42.845Z,61.58
2022-11-22T10:34:38.757Z,61.58
2022-11-22T10:35:37.703Z,61.58
2022-11-22T10:36:37.692Z,61.58
2022-11-22T10:37:37.678Z,61.58
2022-11-22T10:38:43.673Z,61.58
2022-11-22T10:39:38.014Z,61.58
2022-11-22T10:40:37.639Z,61.58
2022-11-22T10:41:37.643Z,61.58
2022-11-22T10:42:37.613Z,61.58
2022-11-22T10:43:37.598Z,61.58
2022-11-22T10:44:37.587Z,61.58
2022-11-22T10:45:37.575Z,61.58
2022-11-22T10:46:37.679Z,61.48
2022-11-22T10:47:37.548Z,61.48
2022-11-22T10:48:37.535Z,61.48
2022-11-22T10:49:37.518Z,61.48
2022-11-22T10:50:37.504Z,61.58
2022-11-22T10:51:37.494Z,61.58
2022-11-22T10:52:37.478Z,61.58
2022-11-22T10:53:37.466Z,61.58
2022-11-22T10:54:37.454Z,61.58
2022-11-22T10:55:37.442Z,61.58
2022-11-22T10:56:37.426Z,61.58
2022-11-22T10:57:37.415Z,61.58
2022-11-22T10:58:37.400Z,61.58
2022-11-22T10:59:37.390Z,61.48
2022-11-22T11:00:37.374Z,61.48
2022-11-22T11:01:37.430Z,61.58
2022-11-22T11:02:37.510Z,61.58
2022-11-22T11:03:37.334Z,61.58
2022-11-22T11:04:37.329Z,61.58
2022-11-22T11:05:37.499Z,61.58
2022-11-22T11:07:04.774Z,61.58
2022-11-22T11:07:38.362Z,61.58
2022-11-22T11:09:02.761Z,61.58
2022-11-22T11:10:38.392Z,61.58
2022-11-22T11:11:37.229Z,61.58
2022-11-22T11:12:37.212Z,61.58
2022-11-22T11:13:37.202Z,61.58
2022-11-22T11:14:37.188Z,61.58
2022-11-22T11:15:37.176Z,61.58
2022-11-22T11:16:37.160Z,61.58
2022-11-22T11:17:37.152Z,61.58
2022-11-22T11:18:37.255Z,61.58
2022-11-22T11:19:37.128Z,61.58
2022-11-22T11:20:37.109Z,61.68
2022-11-22T11:21:43.140Z,61.68
2022-11-22T11:23:12.361Z,61.68
2022-11-22T11:23:39.070Z,61.68
2022-11-22T11:24:37.057Z,61.58
2022-11-22T11:25:37.045Z,61.58
2022-11-22T11:26:37.030Z,61.68
2022-11-22T11:27:37.017Z,61.58
2022-11-22T11:28:37.005Z,61.58
2022-11-22T11:29:38.125Z,61.68
2022-11-22T11:30:36.981Z,61.68
2022-11-22T11:31:36.967Z,61.68
2022-11-22T11:32:36.952Z,61.68
2022-11-22T11:33:36.941Z,61.68
2022-11-22T11:34:37.053Z,61.68
2022-11-22T11:35:36.914Z,61.68
2022-11-22T11:36:36.900Z,61.78
2022-11-22T11:37:36.899Z,61.78
2022-11-22T11:38:36.888Z,61.78
2022-11-22T11:39:40.577Z,61.78
2022-11-22T11:40:37.888Z,61.78
2022-11-22T11:41:42.085Z,61.88
2022-11-22T11:42:37.873Z,61.78
2022-11-22T11:43:36.809Z,61.88
2022-11-22T11:44:36.795Z,61.88
2022-11-22T11:45:36.783Z,61.88
2022-11-22T11:46:36.769Z,61.88
2022-11-22T11:47:36.758Z,61.88
2022-11-22T11:48:36.743Z,61.88
2022-11-22T11:49:36.731Z,61.99
2022-11-22T11:50:36.840Z,61.88
2022-11-22T11:51:36.704Z,61.88
2022-11-22T11:52:36.692Z,61.99
2022-11-22T11:53:36.728Z,61.99
2022-11-22T11:54:36.662Z,61.99
2022-11-22T11:55:36.659Z,61.99
2022-11-22T11:56:36.642Z,61.88
2022-11-22T11:57:36.645Z,61.99
2022-11-22T11:58:36.612Z,61.99
2022-11-22T12:00:11.555Z,61.99
2022-11-22T12:01:11.539Z,61.88
2022-11-22T12:02:11.581Z,61.88
2022-11-22T12:03:11.514Z,61.88
2022-11-22T12:04:11.503Z,61.88
2022-11-22T12:05:11.490Z,61.99
2022-11-22T12:06:11.609Z,61.88
2022-11-22T12:07:11.494Z,61.99
2022-11-22T12:08:11.452Z,61.99
2022-11-22T12:09:11.437Z,61.99
2022-11-22T12:10:11.426Z,61.99
2022-11-22T12:11:11.413Z,61.99
2022-11-22T12:12:11.412Z,61.99
2022-11-22T12:13:11.387Z,61.99
2022-11-22T12:14:19.968Z,62.09
2022-11-22T12:15:12.696Z,62.09
2022-11-22T12:16:11.350Z,62.09
2022-11-22T12:17:11.335Z,62.09
2022-11-22T12:18:11.321Z,62.09
2022-11-22T12:19:11.310Z,62.09
2022-11-22T12:20:11.297Z,62.09
2022-11-22T12:21:11.281Z,62.09
2022-11-22T12:22:19.818Z,62.19
2022-11-22T12:23:12.299Z,62.19
2022-11-22T12:25:31.449Z,62.09
2022-11-22T12:26:12.264Z,62.09
2022-11-22T12:27:11.207Z,62.19
2022-11-22T12:28:11.195Z,62.19
2022-11-22T12:29:11.183Z,62.19
2022-11-22T12:30:11.173Z,62.19
2022-11-22T12:32:12.186Z,62.19
2022-11-22T12:33:11.135Z,62.19
2022-11-22T12:34:11.117Z,62.19
2022-11-22T12:35:11.112Z,62.19
2022-11-22T12:36:11.092Z,62.19
2022-11-22T12:37:11.080Z,62.29
2022-11-22T12:38:11.187Z,62.29
2022-11-22T12:39:11.055Z,62.29
2022-11-22T12:40:11.041Z,62.29
2022-11-22T12:41:11.031Z,62.29
2022-11-22T12:42:11.015Z,62.29
2022-11-22T12:43:11.026Z,62.29
2022-11-22T12:44:10.990Z,62.29
2022-11-22T12:45:10.978Z,62.40
2022-11-22T12:46:10.964Z,62.40
2022-11-22T12:47:10.953Z,62.40
2022-11-22T12:48:10.943Z,62.40
2022-11-22T12:48:23.137Z,62.09
2022-11-22T12:48:23.891Z,62.19
2022-11-22T12:49:10.930Z,62.40
2022-11-22T12:50:10.967Z,62.40
2022-11-22T12:51:10.903Z,62.40
2022-11-22T12:52:10.889Z,62.40
2022-11-22T12:53:10.877Z,62.40
2022-11-22T12:54:10.980Z,62.50
2022-11-22T12:55:10.851Z,62.40
2022-11-22T12:56:10.847Z,62.50
2022-11-22T12:57:10.828Z,62.50
2022-11-22T12:58:10.812Z,62.50
2022-11-22T12:59:10.806Z,62.50
2022-11-22T13:00:10.795Z,62.50
2022-11-22T13:01:10.880Z,62.50